Clarkson, New York
Current Conditions -  °F | °C
As of 10:54 AM on Thursday 30 Oct 2014 (Local Time) from KROC Reporting Station
Broken Clouds Broken Clouds  
Wind Chill: 42°   Ceiling: 2600
Heat Index: 46°   Visibility: 10mi
Dew Point: 35°   Wind: 8mph
Humidity: 66%   Direction: 310°NW
Pressure: 30.07"   Gusts: NA
Location:  43.23°N, 77.93°W
Report Text: KROC 301454Z 31007KT 10SM BKN026 BKN034 BKN070 08/02 A3007 RMK AO2 SLP188 T00780017 51003
Loading
Personal Weather Stations






























Interactive Weather Map
Tropical Storm Tracking
New forecast layout! Learn more

10-Day Weather Forecast

Advertisements
Track Severe Weather on mobile